createdAt,value
2022-08-19T00:02:26.041Z,97247.00
2022-08-19T00:05:04.279Z,97244.02
2022-08-19T00:07:33.912Z,97241.10
2022-08-19T00:10:04.108Z,97241.64
2022-08-19T00:12:33.962Z,97235.30
2022-08-19T00:15:14.231Z,97235.38
2022-08-19T00:17:45.530Z,97234.17
2022-08-19T00:20:18.117Z,97232.01
2022-08-19T00:22:48.572Z,97230.00
2022-08-19T00:25:19.409Z,97230.98
2022-08-19T00:28:00.167Z,97231.92
2022-08-19T00:30:32.790Z,97231.77
2022-08-19T00:33:01.520Z,97235.58
2022-08-19T00:35:32.652Z,97229.39
2022-08-19T00:38:02.870Z,97235.22
2022-08-19T00:40:32.809Z,97237.11
2022-08-19T00:43:02.499Z,97236.72
2022-08-19T00:45:32.810Z,97236.88
2022-08-19T00:48:06.502Z,97234.28
2022-08-19T00:50:52.258Z,97225.46
2022-08-19T00:53:25.480Z,97220.70
2022-08-19T00:55:57.740Z,97226.48
2022-08-19T00:58:33.640Z,97224.86
2022-08-19T01:01:04.508Z,97219.49
2022-08-19T01:03:57.233Z,97219.66
2022-08-19T01:06:23.173Z,97219.23
2022-08-19T01:08:52.943Z,97219.81
2022-08-19T01:11:22.845Z,97219.23
2022-08-19T01:13:53.640Z,97221.12
2022-08-19T01:16:26.813Z,97221.39
2022-08-19T01:18:57.190Z,97224.19
2022-08-19T01:21:35.622Z,97218.88
2022-08-19T01:24:06.442Z,97218.98
2022-08-19T01:26:43.471Z,97215.02
2022-08-19T01:29:13.561Z,97213.15
2022-08-19T01:31:44.501Z,97211.44
2022-08-19T01:34:14.200Z,97207.16
2022-08-19T01:36:47.860Z,97202.13
2022-08-19T01:39:20.844Z,97200.30
2022-08-19T01:41:50.942Z,97198.52
2022-08-19T01:44:24.130Z,97199.66
2022-08-19T01:46:52.930Z,97198.20
2022-08-19T01:49:25.184Z,97190.59
2022-08-19T01:51:55.292Z,97191.73
2022-08-19T01:54:27.855Z,97187.70
2022-08-19T01:57:02.367Z,97179.16
2022-08-19T01:59:33.480Z,97181.25
2022-08-19T02:02:03.190Z,97184.86
2022-08-19T02:04:33.060Z,97184.21
2022-08-19T02:07:02.913Z,97184.29
2022-08-19T02:09:33.925Z,97185.79
2022-08-19T02:12:04.232Z,97185.70
2022-08-19T02:14:36.292Z,97182.94
2022-08-19T02:17:06.210Z,97186.98
2022-08-19T02:19:35.606Z,97181.80
2022-08-19T02:22:08.733Z,97177.42
2022-08-19T02:24:39.373Z,97171.41
2022-08-19T02:27:09.182Z,97169.48
2022-08-19T02:29:38.881Z,97169.64
2022-08-19T02:32:09.300Z,97171.00
2022-08-19T02:34:45.750Z,97171.42
2022-08-19T02:37:29.715Z,97172.13
2022-08-19T02:40:00.408Z,97173.71
2022-08-19T02:42:30.953Z,97176.06
2022-08-19T02:45:01.190Z,97177.31
2022-08-19T02:47:34.030Z,97180.11
2022-08-19T02:50:05.331Z,97174.56
2022-08-19T02:52:36.517Z,97171.64
2022-08-19T02:55:08.560Z,97165.73
2022-08-19T02:57:38.570Z,97164.54
2022-08-19T03:00:12.633Z,97169.10
2022-08-19T03:02:42.348Z,97168.34
2022-08-19T03:05:12.948Z,97171.55
2022-08-19T03:07:42.659Z,97171.89
2022-08-19T03:10:12.558Z,97178.02
2022-08-19T03:12:41.892Z,97180.88
2022-08-19T03:15:11.711Z,97179.10
2022-08-19T03:17:41.250Z,97180.95
2022-08-19T03:20:12.417Z,97182.09
2022-08-19T03:22:42.161Z,97185.69
2022-08-19T03:25:12.592Z,97188.73
2022-08-19T03:27:42.531Z,97194.81
2022-08-19T03:30:14.672Z,97200.55
2022-08-19T03:32:57.088Z,97202.79
2022-08-19T03:35:27.073Z,97202.03
2022-08-19T03:37:57.417Z,97198.77
2022-08-19T03:40:27.162Z,97193.67
2022-08-19T03:42:57.970Z,97191.88
2022-08-19T03:45:28.072Z,97192.60
2022-08-19T03:47:58.967Z,97196.75
2022-08-19T03:50:28.552Z,97198.67
2022-08-19T03:52:58.262Z,97194.65
2022-08-19T03:55:28.080Z,97198.05
2022-08-19T03:57:59.314Z,97198.19
2022-08-19T04:00:29.170Z,97203.38
2022-08-19T04:03:00.983Z,97208.13
2022-08-19T04:05:31.361Z,97209.32
2022-08-19T04:08:04.002Z,97209.65
2022-08-19T04:10:36.392Z,97210.55
2022-08-19T04:13:07.670Z,97211.86
2022-08-19T04:15:42.070Z,97209.86
2022-08-19T04:18:12.354Z,97208.52
2022-08-19T04:20:46.388Z,97211.78
2022-08-19T04:23:16.321Z,97210.76
2022-08-19T04:25:46.440Z,97212.63
2022-08-19T04:28:16.101Z,97213.60
2022-08-19T04:30:48.669Z,97209.98
2022-08-19T04:33:25.731Z,97212.39
2022-08-19T04:35:59.500Z,97215.77
2022-08-19T04:38:29.211Z,97216.00
2022-08-19T04:41:16.402Z,97216.45
2022-08-19T04:43:49.292Z,97213.52
2022-08-19T04:46:40.199Z,97201.25
2022-08-19T04:49:10.405Z,97196.50
2022-08-19T04:51:44.901Z,97191.25
2022-08-19T04:54:14.898Z,97190.89
2022-08-19T04:56:51.251Z,97198.88
2022-08-19T04:59:21.773Z,97206.02
2022-08-19T05:01:51.783Z,97212.31
2022-08-19T05:04:22.002Z,97217.92
2022-08-19T05:06:54.360Z,97224.57
2022-08-19T05:09:55.425Z,97226.20
2022-08-19T05:12:20.373Z,97227.08
2022-08-19T05:14:52.472Z,97236.13
2022-08-19T05:17:32.370Z,97238.75
2022-08-19T05:20:25.601Z,97235.29
2022-08-19T05:22:55.090Z,97237.77
2022-08-19T05:25:25.268Z,97237.73
2022-08-19T05:28:12.230Z,97239.79
2022-08-19T05:30:47.593Z,97243.31
2022-08-19T05:33:17.680Z,97242.48
2022-08-19T05:35:49.004Z,97245.43
2022-08-19T05:38:19.523Z,97251.77
2022-08-19T05:40:49.940Z,97254.00
2022-08-19T05:43:19.988Z,97260.26
2022-08-19T05:45:51.205Z,97266.30
2022-08-19T05:48:21.110Z,97271.27
2022-08-19T05:50:51.342Z,97269.02
2022-08-19T05:53:21.220Z,97264.27
2022-08-19T05:55:51.002Z,97262.98
2022-08-19T05:58:20.652Z,97263.98
2022-08-19T06:00:54.940Z,97266.27
2022-08-19T06:03:24.791Z,97268.83
2022-08-19T06:05:55.732Z,97265.85
2022-08-19T06:08:34.150Z,97265.26
2022-08-19T06:11:20.540Z,97259.95
2022-08-19T06:13:59.707Z,97254.39
2022-08-19T06:16:32.351Z,97248.36
2022-08-19T06:19:07.450Z,97247.35
2022-08-19T06:21:39.260Z,97244.05
2022-08-19T06:24:14.281Z,97247.09
2022-08-19T06:29:24.493Z,97259.66
2022-08-19T06:31:57.147Z,97266.27
2022-08-19T06:34:29.123Z,97270.60
2022-08-19T06:37:01.682Z,97266.65
2022-08-19T06:39:35.000Z,97260.68
2022-08-19T06:42:07.732Z,97260.75
2022-08-19T06:44:43.045Z,97265.55
2022-08-19T06:47:23.678Z,97269.31
2022-08-19T06:50:03.725Z,97268.13
2022-08-19T06:52:36.713Z,97268.33
2022-08-19T06:55:11.024Z,97262.52
2022-08-19T06:57:40.811Z,97258.75
2022-08-19T07:00:15.977Z,97263.15
2022-08-19T07:02:50.737Z,97259.45
2022-08-19T07:05:27.395Z,97259.23
2022-08-19T07:08:01.650Z,97262.96
2022-08-19T07:10:35.668Z,97267.56
2022-08-19T07:13:06.858Z,97267.83
2022-08-19T07:15:39.776Z,97269.02
2022-08-19T07:18:11.740Z,97273.34
2022-08-19T07:20:43.561Z,97278.80
2022-08-19T07:23:15.933Z,97280.75
2022-08-19T07:25:53.004Z,97280.15
2022-08-19T07:28:24.725Z,97288.16
2022-08-19T07:30:55.570Z,97293.68
2022-08-19T07:33:27.899Z,97300.64
2022-08-19T07:35:57.741Z,97298.89
2022-08-19T07:38:27.987Z,97300.10
2022-08-19T07:40:57.578Z,97299.20
2022-08-19T07:43:31.415Z,97297.16
2022-08-19T07:46:05.668Z,97299.26
2022-08-19T07:48:35.438Z,97300.67
2022-08-19T07:51:08.836Z,97301.44
2022-08-19T07:53:39.919Z,97302.19
2022-08-19T07:56:09.821Z,97303.27
2022-08-19T07:58:43.183Z,97304.41
2022-08-19T08:01:16.077Z,97304.33
2022-08-19T08:04:02.940Z,97308.05
2022-08-19T08:06:50.723Z,97310.63
2022-08-19T08:09:24.134Z,97319.80
2022-08-19T08:11:57.701Z,97321.67
2022-08-19T08:14:35.111Z,97325.48
2022-08-19T08:17:11.007Z,97324.59
2022-08-19T08:19:42.356Z,97322.85
2022-08-19T08:22:43.743Z,97328.83
2022-08-19T08:25:15.903Z,97333.95
2022-08-19T08:27:47.202Z,97338.14
2022-08-19T08:30:23.008Z,97342.20
2022-08-19T08:32:53.571Z,97342.91
2022-08-19T08:35:25.382Z,97345.38
2022-08-19T08:37:57.184Z,97347.12
2022-08-19T08:40:35.182Z,97343.46
2022-08-19T08:43:11.540Z,97340.83
2022-08-19T08:45:53.471Z,97338.45
2022-08-19T08:48:36.493Z,97339.25
2022-08-19T08:51:10.662Z,97340.34
2022-08-19T08:53:42.142Z,97340.46
2022-08-19T08:56:13.721Z,97342.92
2022-08-19T08:58:54.559Z,97341.27
2022-08-19T09:01:25.019Z,97338.00
2022-08-19T09:04:02.693Z,97336.13
2022-08-19T09:06:56.320Z,97333.16
2022-08-19T09:09:33.192Z,97338.71
2022-08-19T09:12:11.806Z,97330.52
2022-08-19T09:14:52.071Z,97333.43
2022-08-19T09:17:31.483Z,97334.02
2022-08-19T09:20:09.015Z,97335.61
2022-08-19T09:22:40.194Z,97337.07
2022-08-19T09:25:12.414Z,97334.27
2022-08-19T09:27:43.708Z,97331.31
2022-08-19T09:30:17.326Z,97330.82
2022-08-19T09:32:47.305Z,97330.65
2022-08-19T09:35:25.014Z,97327.36
2022-08-19T09:37:57.596Z,97322.64
2022-08-19T09:40:30.602Z,97324.80
2022-08-19T09:43:03.283Z,97321.56
2022-08-19T09:45:40.050Z,97317.38
2022-08-19T09:48:09.770Z,97313.50
2022-08-19T09:50:51.743Z,97311.30
2022-08-19T09:53:23.110Z,97310.30
2022-08-19T09:55:57.333Z,97309.86
2022-08-19T09:58:28.611Z,97307.95
2022-08-19T10:01:00.294Z,97311.42
2022-08-19T10:03:31.618Z,97312.19
2022-08-19T10:06:02.853Z,97310.82
2022-08-19T10:08:35.780Z,97314.52
2022-08-19T10:11:28.114Z,97314.19
2022-08-19T10:13:56.446Z,97315.21
2022-08-19T10:16:30.336Z,97308.77
2022-08-19T10:19:01.011Z,97307.93
2022-08-19T10:21:35.620Z,97305.77
2022-08-19T10:24:09.322Z,97304.96
2022-08-19T10:26:45.582Z,97309.04
2022-08-19T10:29:32.148Z,97304.42
2022-08-19T10:32:05.257Z,97301.44
2022-08-19T10:34:48.990Z,97303.29
2022-08-19T10:37:28.866Z,97310.73
2022-08-19T10:40:02.597Z,97312.52
2022-08-19T10:42:35.550Z,97310.17
2022-08-19T10:45:07.992Z,97307.91
2022-08-19T10:47:38.470Z,97310.05
2022-08-19T10:50:28.735Z,97305.80
2022-08-19T10:53:04.992Z,97306.83
2022-08-19T10:55:57.322Z,97304.67
2022-08-19T10:58:27.110Z,97303.23
2022-08-19T11:01:01.029Z,97301.81
2022-08-19T11:03:31.312Z,97305.86
2022-08-19T11:06:07.760Z,97307.44
2022-08-19T11:08:39.210Z,97304.25
2022-08-19T11:11:09.856Z,97303.84
2022-08-19T11:13:42.034Z,97299.04
2022-08-19T11:16:14.919Z,97296.09
2022-08-19T11:18:46.546Z,97298.60
2022-08-19T11:21:22.560Z,97295.71
2022-08-19T11:23:55.968Z,97291.56
2022-08-19T11:26:26.151Z,97296.15
2022-08-19T11:28:56.670Z,97292.45
2022-08-19T11:31:28.927Z,97287.61
2022-08-19T11:34:00.999Z,97288.71
2022-08-19T11:36:32.023Z,97288.45
2022-08-19T11:39:02.970Z,97282.21
2022-08-19T11:41:32.640Z,97287.77
2022-08-19T11:44:03.900Z,97284.71
2022-08-19T11:46:34.229Z,97277.11
2022-08-19T11:49:06.588Z,97277.45
2022-08-19T11:51:37.843Z,97269.52
2022-08-19T11:54:08.174Z,97266.14
2022-08-19T11:56:39.542Z,97269.06
2022-08-19T11:59:14.666Z,97267.21
2022-08-19T12:01:44.973Z,97275.23
2022-08-19T12:04:15.078Z,97263.50
2022-08-19T12:06:45.003Z,97264.55
2022-08-19T12:09:16.182Z,97261.02
2022-08-19T12:11:46.411Z,97265.58
2022-08-19T12:14:17.083Z,97263.38
2022-08-19T12:16:52.428Z,97259.77
2022-08-19T12:19:22.904Z,97263.27
2022-08-19T12:22:05.742Z,97266.44
2022-08-19T12:24:36.080Z,97263.91
2022-08-19T12:27:06.050Z,97265.58
2022-08-19T12:29:42.685Z,97257.75
2022-08-19T12:32:12.451Z,97266.77
2022-08-19T12:34:45.281Z,97276.60
2022-08-19T12:37:17.870Z,97276.42
2022-08-19T12:39:51.163Z,97272.53
2022-08-19T12:42:23.071Z,97262.52
2022-08-19T12:44:53.662Z,97263.28
2022-08-19T12:47:23.980Z,97258.32
2022-08-19T12:49:55.881Z,97262.80
2022-08-19T12:52:27.722Z,97261.90
2022-08-19T12:54:58.553Z,97263.67
2022-08-19T12:57:33.750Z,97264.77
2022-08-19T13:00:09.973Z,97267.20
2022-08-19T13:02:41.259Z,97264.34
2022-08-19T13:05:15.210Z,97260.91
2022-08-19T13:07:45.043Z,97264.06
2022-08-19T13:10:18.622Z,97264.27
2022-08-19T13:12:50.135Z,97263.25
2022-08-19T13:15:23.929Z,97266.22
2022-08-19T13:17:56.154Z,97265.02
2022-08-19T13:20:26.541Z,97255.76
2022-08-19T13:22:57.854Z,97254.58
2022-08-19T13:25:27.662Z,97251.68
2022-08-19T13:27:57.393Z,97254.42
2022-08-19T13:30:45.122Z,97246.99
2022-08-19T13:33:17.653Z,97244.55
2022-08-19T13:35:52.412Z,97243.61
2022-08-19T13:38:23.386Z,97245.91
2022-08-19T13:40:55.928Z,97247.70
2022-08-19T13:43:27.810Z,97252.42
2022-08-19T13:45:58.783Z,97250.60
2022-08-19T13:48:29.432Z,97255.09
2022-08-19T13:50:59.152Z,97253.90
2022-08-19T13:53:28.720Z,97249.98
2022-08-19T13:55:58.548Z,97246.69
2022-08-19T13:58:27.892Z,97246.91
2022-08-19T14:00:57.728Z,97242.13
2022-08-19T14:03:27.411Z,97243.91
2022-08-19T14:05:57.080Z,97248.02
2022-08-19T14:08:31.431Z,97241.02
2022-08-19T14:11:06.298Z,97241.77
2022-08-19T14:13:36.671Z,97242.54
2022-08-19T14:16:10.523Z,97239.39
2022-08-19T14:18:40.773Z,97234.96
2022-08-19T14:21:17.901Z,97230.34
2022-08-19T14:23:47.948Z,97224.77
2022-08-19T14:26:20.420Z,97220.65
2022-08-19T14:28:52.671Z,97217.05
2022-08-19T14:31:29.009Z,97215.74
2022-08-19T14:34:03.321Z,97209.68
2022-08-19T14:36:38.979Z,97215.34
2022-08-19T14:39:10.196Z,97218.71
2022-08-19T14:41:42.651Z,97220.12
2022-08-19T14:44:13.813Z,97221.70
2022-08-19T14:46:49.251Z,97220.98
2022-08-19T14:49:20.610Z,97221.27
2022-08-19T14:51:59.685Z,97215.55
2022-08-19T14:54:29.750Z,97213.34
2022-08-19T14:57:00.541Z,97217.34
2022-08-19T14:59:30.180Z,97225.98
2022-08-19T15:02:00.540Z,97228.96
2022-08-19T15:04:58.121Z,97225.20
2022-08-19T15:07:29.991Z,97218.77
2022-08-19T15:10:00.346Z,97219.16
2022-08-19T15:12:31.075Z,97214.38
2022-08-19T15:15:01.149Z,97216.52
2022-08-19T15:17:43.589Z,97218.08
2022-08-19T15:20:21.792Z,97219.59
2022-08-19T15:22:52.113Z,97216.38
2022-08-19T15:25:22.361Z,97217.63
2022-08-19T15:27:53.594Z,97213.52
2022-08-19T15:30:25.473Z,97207.20
2022-08-19T15:32:55.745Z,97197.49
2022-08-19T15:35:26.207Z,97193.77
2022-08-19T15:37:56.766Z,97185.80
2022-08-19T15:40:29.833Z,97181.30
2022-08-19T15:43:00.773Z,97177.69
2022-08-19T15:45:33.971Z,97175.91
2022-08-19T15:48:06.572Z,97174.27
2022-08-19T15:50:39.201Z,97174.92
2022-08-19T15:53:10.731Z,97175.45
2022-08-19T15:55:45.769Z,97174.48
2022-08-19T15:58:33.888Z,97167.83
2022-08-19T16:01:26.850Z,97170.17
2022-08-19T16:04:16.961Z,97165.50
2022-08-19T16:06:51.461Z,97165.61
2022-08-19T16:09:27.297Z,97160.96
2022-08-19T16:12:01.684Z,97159.71
2022-08-19T16:14:35.531Z,97156.67
2022-08-19T16:17:05.574Z,97158.55
2022-08-19T16:19:35.536Z,97157.83
2022-08-19T16:22:06.805Z,97161.45
2022-08-19T16:24:36.881Z,97161.16
2022-08-19T16:27:06.901Z,97165.61
2022-08-19T16:29:39.791Z,97172.89
2022-08-19T16:32:14.722Z,97177.14
2022-08-19T16:34:45.822Z,97180.90
2022-08-19T16:37:19.153Z,97190.15
2022-08-19T16:39:51.215Z,97196.02
2022-08-19T16:42:23.793Z,97197.00
2022-08-19T16:44:52.442Z,97199.36
2022-08-19T16:47:22.074Z,97202.04
2022-08-19T16:49:53.749Z,97205.77
2022-08-19T16:52:26.837Z,97205.89
2022-08-19T16:54:56.566Z,97207.02
2022-08-19T16:57:26.312Z,97206.31
2022-08-19T16:59:56.062Z,97209.41
2022-08-19T17:02:29.706Z,97208.88
2022-08-19T17:05:04.122Z,97210.60
2022-08-19T17:07:33.843Z,97212.70
2022-08-19T17:10:05.666Z,97211.67
2022-08-19T17:12:37.130Z,97211.98
2022-08-19T17:15:09.364Z,97203.58
2022-08-19T17:17:41.097Z,97200.72
2022-08-19T17:20:11.891Z,97198.79
2022-08-19T17:22:41.287Z,97195.36
2022-08-19T17:25:11.584Z,97188.93
2022-08-19T17:27:41.442Z,97186.14
2022-08-19T17:30:12.352Z,97186.88
2022-08-19T17:32:42.072Z,97192.35
2022-08-19T17:35:12.181Z,97193.98
2022-08-19T17:37:42.932Z,97194.08
2022-08-19T17:40:15.011Z,97195.96
2022-08-19T17:42:49.520Z,97192.73
2022-08-19T17:45:22.018Z,97196.30
2022-08-19T17:47:51.898Z,97199.02
2022-08-19T17:50:22.181Z,97202.73
2022-08-19T17:52:52.380Z,97201.20
2022-08-19T17:55:24.541Z,97202.53
2022-08-19T17:57:54.329Z,97207.23
2022-08-19T18:00:24.490Z,97210.38
2022-08-19T18:02:59.981Z,97217.34
2022-08-19T18:05:32.583Z,97219.55
2022-08-19T18:08:04.212Z,97229.58
2022-08-19T18:10:35.238Z,97233.09
2022-08-19T18:13:17.337Z,97233.32
2022-08-19T18:15:49.855Z,97235.48
2022-08-19T18:18:21.253Z,97240.71
2022-08-19T18:20:51.768Z,97234.75
2022-08-19T18:23:44.404Z,97234.79
2022-08-19T18:26:11.888Z,97234.91
2022-08-19T18:28:49.984Z,97237.34
2022-08-19T18:31:31.003Z,97245.68
2022-08-19T18:34:05.212Z,97255.64
2022-08-19T18:36:53.412Z,97261.96
2022-08-19T18:39:45.235Z,97263.80
2022-08-19T18:42:38.743Z,97264.72
2022-08-19T18:45:30.403Z,97259.15
2022-08-19T18:48:26.944Z,97249.31
2022-08-19T18:51:00.987Z,97243.71
2022-08-19T18:53:38.142Z,97244.25
2022-08-19T18:56:13.385Z,97244.17
2022-08-19T18:58:46.033Z,97248.67
2022-08-19T19:01:24.463Z,97253.88
2022-08-19T19:03:59.677Z,97252.89
2022-08-19T19:06:37.840Z,97252.00
2022-08-19T19:09:11.102Z,97252.11
2022-08-19T19:11:45.914Z,97257.42
2022-08-19T19:14:47.706Z,97260.73
2022-08-19T19:17:17.516Z,97272.00
2022-08-19T19:19:48.460Z,97278.49
2022-08-19T19:22:21.462Z,97282.23
2022-08-19T19:24:54.122Z,97280.10
2022-08-19T19:27:26.934Z,97283.05
2022-08-19T19:29:57.578Z,97276.80
2022-08-19T19:32:34.789Z,97275.42
2022-08-19T19:35:10.272Z,97276.98
2022-08-19T19:37:40.157Z,97285.72
2022-08-19T19:40:11.174Z,97288.28
2022-08-19T19:42:40.812Z,97292.75
2022-08-19T19:45:13.123Z,97304.02
2022-08-19T19:47:44.183Z,97318.52
2022-08-19T19:50:16.306Z,97333.86
2022-08-19T19:52:47.663Z,97353.02
2022-08-19T19:55:21.330Z,97353.42
2022-08-19T19:57:54.489Z,97354.70
2022-08-19T20:00:25.412Z,97357.20
2022-08-19T20:02:55.510Z,97346.71
2022-08-19T20:05:25.790Z,97329.43
2022-08-19T20:08:14.304Z,97318.27
2022-08-19T20:10:44.901Z,97303.04
2022-08-19T20:13:15.860Z,97308.14
2022-08-19T20:15:46.211Z,97302.27
2022-08-19T20:18:15.910Z,97304.72
2022-08-19T20:20:46.162Z,97310.64
2022-08-19T20:23:15.872Z,97312.88
2022-08-19T20:25:45.453Z,97317.50
2022-08-19T20:28:15.072Z,97321.20
2022-08-19T20:30:46.539Z,97322.48
2022-08-19T20:33:16.541Z,97318.38
2022-08-19T20:35:46.253Z,97318.50
2022-08-19T20:38:16.315Z,97319.50
2022-08-19T20:40:46.072Z,97321.74
2022-08-19T20:43:15.842Z,97326.86
2022-08-19T20:45:46.613Z,97326.75
2022-08-19T20:48:16.202Z,97323.16
2022-08-19T20:50:45.731Z,97326.74
2022-08-19T20:53:18.582Z,97324.68
2022-08-19T20:55:51.400Z,97323.66
2022-08-19T20:58:22.331Z,97317.04
2022-08-19T21:00:56.793Z,97317.55
2022-08-19T21:03:33.601Z,97309.27
2022-08-19T21:06:13.826Z,97305.25
2022-08-19T21:08:43.717Z,97305.69
2022-08-19T21:11:14.811Z,97303.66
2022-08-19T21:13:50.503Z,97301.47
2022-08-19T21:16:20.159Z,97302.80
2022-08-19T21:18:49.882Z,97301.79
2022-08-19T21:21:19.493Z,97304.07
2022-08-19T21:23:49.657Z,97309.84
2022-08-19T21:26:20.021Z,97305.04
2022-08-19T21:28:49.805Z,97300.35
2022-08-19T21:31:20.511Z,97294.86
2022-08-19T21:33:50.453Z,97292.17
2022-08-19T21:36:20.151Z,97291.20
2022-08-19T21:38:49.873Z,97289.81
2022-08-19T21:41:19.750Z,97292.50
2022-08-19T21:43:49.803Z,97302.71
2022-08-19T21:46:19.683Z,97305.52
2022-08-19T21:48:49.402Z,97314.40
2022-08-19T21:51:19.110Z,97319.12
2022-08-19T21:53:52.947Z,97320.63
2022-08-19T21:56:22.901Z,97317.27
2022-08-19T21:58:55.310Z,97316.69
2022-08-19T22:01:25.140Z,97320.33
2022-08-19T22:03:55.563Z,97323.62
2022-08-19T22:06:26.605Z,97317.94
2022-08-19T22:08:56.967Z,97315.68
2022-08-19T22:11:28.104Z,97307.50
2022-08-19T22:13:58.147Z,97305.77
2022-08-19T22:16:29.165Z,97298.13
2022-08-19T22:18:59.921Z,97290.10
2022-08-19T22:21:40.187Z,97289.16
2022-08-19T22:24:11.030Z,97292.01
2022-08-19T22:26:40.920Z,97293.98
2022-08-19T22:29:10.733Z,97291.86
2022-08-19T22:31:46.382Z,97293.73
2022-08-19T22:34:24.553Z,97297.39
2022-08-19T22:36:54.123Z,97300.63
2022-08-19T22:39:23.649Z,97303.91
2022-08-19T22:41:53.422Z,97300.20
2022-08-19T22:44:23.223Z,97290.34
2022-08-19T22:46:52.971Z,97289.31
2022-08-19T22:49:22.553Z,97289.42
2022-08-19T22:52:10.171Z,97296.52
2022-08-19T22:54:40.029Z,97297.08
2022-08-19T22:57:10.940Z,97294.80
2022-08-19T22:59:41.221Z,97298.70
2022-08-19T23:02:11.507Z,97300.42
2022-08-19T23:04:41.120Z,97299.64
2022-08-19T23:07:10.961Z,97297.83
2022-08-19T23:09:42.091Z,97295.45
2022-08-19T23:12:13.811Z,97292.30
2022-08-19T23:14:43.880Z,97290.23
2022-08-19T23:17:13.818Z,97298.40
2022-08-19T23:19:43.468Z,97304.89
2022-08-19T23:22:17.194Z,97311.45
2022-08-19T23:24:46.773Z,97316.02
2022-08-19T23:27:34.264Z,97325.73
2022-08-19T23:30:22.869Z,97337.18
2022-08-19T23:32:52.711Z,97342.25
2022-08-19T23:35:23.161Z,97339.55
2022-08-19T23:37:53.479Z,97342.20
2022-08-19T23:40:23.068Z,97341.92
2022-08-19T23:42:53.232Z,97339.34
2022-08-19T23:45:25.444Z,97342.77
2022-08-19T23:47:56.439Z,97349.96
2022-08-19T23:50:28.301Z,97350.05
2022-08-19T23:53:00.510Z,97351.98
2022-08-19T23:55:33.070Z,97350.83
2022-08-19T23:58:03.061Z,97347.41
